Time;durP1;ratioP1;P1;durP2;ratioP2;P2;SDS_P1;SDS_P2;PMS_P1;PMS_P2;Temp;Humidity;BMP_temperature;BMP_pressure;BME280_temperature;BME280_humidity;BME280_pressure;Samples;Min_cycle;Max_cycle;Signal;HPM_P1;HPM_P2
2022/07/29 00:00:18;;;;;;;2.50;0.90;;;;;;;15.25;58.66;101229.09;6049976;28;21108;-66
2022/07/29 00:03:13;;;;;;;3.00;1.00;;;;;;;15.12;58.22;101211.84;6050299;28;20045;-63
2022/07/29 00:06:08;;;;;;;2.10;0.90;;;;;;;15.08;58.65;101216.72;6048932;28;20029;-65
2022/07/29 00:09:04;;;;;;;3.35;1.02;;;;;;;15.13;58.44;101210.88;6050069;28;20030;-63
2022/07/29 00:12:01;;;;;;;2.33;0.90;;;;;;;15.19;58.42;101219.03;6049567;28;20026;-64
2022/07/29 00:14:56;;;;;;;2.80;0.93;;;;;;;15.26;58.35;101220.09;6049299;28;20034;-64
2022/07/29 00:17:52;;;;;;;4.28;1.30;;;;;;;15.08;58.28;101214.03;6050376;28;20504;-67
2022/07/29 00:20:47;;;;;;;1.93;1.00;;;;;;;15.01;58.50;101204.97;6049432;28;20030;-67
2022/07/29 00:23:42;;;;;;;4.03;1.00;;;;;;;14.91;59.12;101209.63;6050249;28;20457;-66
2022/07/29 00:26:37;;;;;;;4.27;1.20;;;;;;;14.79;59.79;101198.41;6049915;28;20044;-63
2022/07/29 00:29:33;;;;;;;2.47;0.70;;;;;;;14.82;59.84;101205.25;6049666;28;20112;-66
2022/07/29 00:32:28;;;;;;;3.03;0.90;;;;;;;14.79;60.20;101189.53;6048441;28;20029;-65
2022/07/29 00:38:37;;;;;;;2.78;1.00;;;;;;;14.99;59.77;101185.63;6049909;28;20253;-63
2022/07/29 00:41:33;;;;;;;2.90;1.03;;;;;;;15.01;60.02;101202.31;6049007;28;20457;-63
2022/07/29 00:44:28;;;;;;;5.43;1.00;;;;;;;14.94;60.16;101193.28;6048842;28;20433;-63
2022/07/29 00:47:23;;;;;;;2.20;1.03;;;;;;;14.93;59.47;101183.59;6047517;28;20515;-66
2022/07/29 00:50:19;;;;;;;2.72;0.90;;;;;;;14.92;60.04;101183.78;6048639;28;20391;-65
2022/07/29 00:53:14;;;;;;;2.53;0.90;;;;;;;14.85;59.73;101171.06;6049244;28;20100;-65
2022/07/29 00:56:09;;;;;;;2.63;1.20;;;;;;;15.02;59.38;101160.41;6049350;28;20327;-65
2022/07/29 00:59:05;;;;;;;2.53;0.93;;;;;;;15.10;60.03;101179.13;6049356;28;20075;-67
2022/07/29 01:02:00;;;;;;;2.93;1.10;;;;;;;15.00;59.44;101175.78;6048505;28;20048;-67
2022/07/29 01:04:56;;;;;;;4.13;1.10;;;;;;;14.79;60.37;101174.38;6048821;28;20025;-64
2022/07/29 01:07:53;;;;;;;2.50;0.88;;;;;;;14.84;60.38;101181.88;6063652;28;20030;-66
2022/07/29 01:10:49;;;;;;;2.58;1.05;;;;;;;14.82;60.31;101159.84;6048236;28;20072;-63
2022/07/29 01:13:45;;;;;;;1.77;1.10;;;;;;;14.97;60.54;101163.59;6048989;28;20097;-66
2022/07/29 01:17:02;;;;;;;2.88;1.00;;;;;;;15.08;59.11;101167.78;6049153;28;20037;-65
2022/07/29 01:20:22;;;;;;;3.90;1.00;;;;;;;15.04;59.66;101164.59;6064254;28;20140;-67
2022/07/29 01:23:20;;;;;;;2.95;0.93;;;;;;;15.06;60.23;101159.06;6049128;28;20120;-64
2022/07/29 01:26:35;;;;;;;4.95;1.08;;;;;;;14.91;59.50;101148.22;6048888;28;20030;-66
2022/07/29 01:29:38;;;;;;;1.75;0.95;;;;;;;15.01;60.13;101161.41;6068221;28;20034;-64
2022/07/29 01:32:36;;;;;;;2.30;1.05;;;;;;;14.90;59.99;101149.19;6044688;28;20058;-65
2022/07/29 01:35:35;;;;;;;3.40;1.17;;;;;;;15.02;59.13;101147.91;6069142;28;20062;-62
2022/07/29 01:38:31;;;;;;;7.65;1.33;;;;;;;15.09;59.42;101150.72;6053537;28;20120;-64
2022/07/29 01:41:28;;;;;;;3.53;1.15;;;;;;;15.11;60.41;101146.91;6052867;28;20040;-66
2022/07/29 01:44:32;;;;;;;2.72;0.90;;;;;;;15.06;59.35;101135.88;6052182;28;20037;-65
2022/07/29 01:47:35;;;;;;;4.55;0.90;;;;;;;15.05;59.77;101130.72;6053654;28;20105;-65
2022/07/29 01:50:35;;;;;;;3.33;1.02;;;;;;;14.94;59.80;101129.19;6051166;28;20052;-66
2022/07/29 01:53:56;;;;;;;2.28;1.08;;;;;;;15.04;60.34;101134.38;6052198;28;20029;-65
2022/07/29 01:56:53;;;;;;;4.88;1.30;;;;;;;14.97;60.09;101134.22;6051889;28;20400;-64
2022/07/29 01:59:49;;;;;;;3.00;1.08;;;;;;;14.85;60.71;101135.50;6051365;28;20030;-64
2022/07/29 02:02:46;;;;;;;3.95;1.02;;;;;;;14.95;60.85;101122.84;6043930;28;20080;-66
2022/07/29 02:05:43;;;;;;;2.85;0.93;;;;;;;14.92;60.32;101135.69;6046675;28;20037;-63
2022/07/29 02:08:39;;;;;;;1.88;1.05;;;;;;;14.76;61.11;101110.59;6052805;28;20049;-64
2022/07/29 02:11:35;;;;;;;4.13;1.17;;;;;;;14.66;61.28;101109.94;6067432;28;20032;-66
2022/07/29 02:14:34;;;;;;;4.18;1.23;;;;;;;14.65;60.87;101118.06;6067901;28;20030;-65
2022/07/29 02:17:33;;;;;;;6.13;1.35;;;;;;;14.57;62.08;101112.72;6067684;28;20030;-64
2022/07/29 02:20:29;;;;;;;3.78;1.10;;;;;;;14.48;62.09;101109.22;6051159;28;20034;-64
2022/07/29 02:23:25;;;;;;;3.70;1.20;;;;;;;14.57;62.24;101110.03;6067687;28;20033;-64
2022/07/29 02:26:23;;;;;;;2.20;0.98;;;;;;;14.49;62.37;101092.19;6051675;28;20037;-65
2022/07/29 02:29:22;;;;;;;5.85;1.27;;;;;;;14.61;62.01;101106.91;6068087;28;20065;-64
2022/07/29 02:32:17;;;;;;;5.18;1.25;;;;;;;14.57;62.07;101094.03;6066375;28;20030;-64
2022/07/29 02:35:14;;;;;;;3.08;1.00;;;;;;;14.50;62.47;101093.03;6051449;28;20429;-63
2022/07/29 02:41:29;;;;;;;2.35;1.20;;;;;;;14.30;63.04;101085.25;6047445;28;20029;-67
2022/07/29 02:44:25;;;;;;;2.83;1.08;;;;;;;14.43;63.07;101086.66;6052044;28;20527;-63
2022/07/29 02:47:36;;;;;;;4.00;1.08;;;;;;;14.57;62.86;101094.88;6051880;28;20092;-63
2022/07/29 02:50:35;;;;;;;5.43;1.70;;;;;;;14.38;62.65;101094.34;6049821;28;20165;-66
2022/07/29 02:53:33;;;;;;;3.75;1.13;;;;;;;14.45;62.99;101101.53;6043414;28;20413;-64
2022/07/29 02:56:34;;;;;;;5.20;1.10;;;;;;;14.51;63.26;101100.84;6051383;28;20061;-64
2022/07/29 02:59:32;;;;;;;2.92;1.27;;;;;;;14.32;63.13;101085.94;6043210;28;20125;-63
2022/07/29 03:02:28;;;;;;;2.80;1.10;;;;;;;14.43;63.46;101097.34;6044955;28;20109;-65
2022/07/29 03:05:24;;;;;;;2.72;1.17;;;;;;;14.30;63.50;101087.91;6046083;28;20374;-66
2022/07/29 03:08:19;;;;;;;1.80;1.05;;;;;;;14.39;64.21;101093.31;6051539;28;20084;-62
2022/07/29 03:11:15;;;;;;;2.10;1.20;;;;;;;14.25;63.90;101092.91;6066123;28;20099;-64
2022/07/29 03:14:11;;;;;;;2.60;1.25;;;;;;;14.17;64.24;101098.19;6067039;28;20136;-66
2022/07/29 03:17:07;;;;;;;6.78;1.17;;;;;;;14.19;64.89;101101.53;6066485;28;20445;-64
2022/07/29 03:20:02;;;;;;;4.20;1.13;;;;;;;14.14;64.54;101090.50;6049257;28;20037;-63
2022/07/29 03:22:58;;;;;;;5.65;1.58;;;;;;;14.16;64.97;101096.50;6050644;28;20045;-66
2022/07/29 03:25:54;;;;;;;4.67;1.10;;;;;;;13.96;65.72;101100.44;6051281;28;20053;-65
2022/07/29 03:28:49;;;;;;;4.57;1.60;;;;;;;13.91;65.78;101092.06;6051424;28;20446;-62
2022/07/29 03:31:44;;;;;;;4.03;1.33;;;;;;;13.91;66.11;101094.75;6050042;28;20040;-67
2022/07/29 03:34:39;;;;;;;3.53;1.13;;;;;;;13.87;66.03;101088.03;6050879;28;20277;-66
2022/07/29 03:37:36;;;;;;;5.03;1.50;;;;;;;13.87;65.92;101077.38;6051249;28;20105;-63
2022/07/29 03:40:34;;;;;;;4.63;1.23;;;;;;;13.91;66.53;101089.41;6050408;28;20040;-63
2022/07/29 03:43:35;;;;;;;4.88;2.45;;;;;;;13.82;66.46;101077.03;6066461;28;20062;-66
2022/07/29 03:46:31;;;;;;;4.65;1.30;;;;;;;13.85;66.98;101084.69;6050008;28;20468;-64
2022/07/29 03:49:27;;;;;;;3.42;1.13;;;;;;;13.89;66.71;101080.72;6048369;28;20033;-66
2022/07/29 03:52:22;;;;;;;2.47;1.23;;;;;;;13.85;66.17;101075.88;6048765;28;20108;-64
2022/07/29 03:55:18;;;;;;;6.43;1.13;;;;;;;13.82;66.60;101090.34;6050597;28;20029;-63
2022/07/29 03:58:14;;;;;;;3.92;1.40;;;;;;;13.74;66.80;101084.97;6050457;28;20060;-65
2022/07/29 04:01:10;;;;;;;7.80;1.73;;;;;;;13.82;67.13;101097.50;6049837;28;20041;-65
2022/07/29 04:04:05;;;;;;;4.53;1.30;;;;;;;13.94;66.71;101094.41;6065472;28;20389;-63
2022/07/29 04:07:00;;;;;;;3.22;1.30;;;;;;;13.95;66.19;101098.75;6049840;28;20041;-66
2022/07/29 04:09:56;;;;;;;6.27;1.50;;;;;;;14.02;66.12;101091.78;6049644;28;20121;-65
2022/07/29 04:12:52;;;;;;;3.83;1.20;;;;;;;14.00;66.58;101092.94;6049675;28;20484;-66
2022/07/29 04:15:47;;;;;;;4.18;1.17;;;;;;;14.03;66.39;101100.63;6049760;28;20269;-63
2022/07/29 04:18:43;;;;;;;5.38;1.60;;;;;;;13.99;67.09;101097.44;6049984;28;20385;-63
2022/07/29 04:21:39;;;;;;;3.27;1.40;;;;;;;14.11;66.18;101101.50;6049864;28;20080;-65
2022/07/29 04:24:34;;;;;;;7.55;1.50;;;;;;;14.03;66.55;101089.94;6050240;28;20028;-64
2022/07/29 04:27:30;;;;;;;3.67;1.40;;;;;;;14.10;66.44;101096.34;6050650;28;20022;-62
2022/07/29 04:30:25;;;;;;;6.83;1.60;;;;;;;14.11;66.04;101088.16;6049540;28;20065;-66
2022/07/29 04:33:20;;;;;;;4.97;1.50;;;;;;;14.20;66.39;101081.88;6049584;28;20308;-64
2022/07/29 04:36:16;;;;;;;3.27;1.47;;;;;;;14.26;66.20;101081.25;6049464;28;20030;-62
2022/07/29 04:39:11;;;;;;;7.23;1.83;;;;;;;14.38;66.11;101086.31;6049417;28;20041;-66
2022/07/29 04:42:06;;;;;;;4.13;1.53;;;;;;;14.25;66.70;101084.91;6048998;28;20469;-66
2022/07/29 04:45:02;;;;;;;6.53;1.60;;;;;;;14.22;66.60;101082.53;6049087;28;20025;-64
2022/07/29 04:47:57;;;;;;;5.47;1.80;;;;;;;14.32;66.10;101090.47;6048254;28;20169;-63
2022/07/29 04:50:52;;;;;;;4.70;1.60;;;;;;;14.44;66.45;101094.50;6048793;28;20029;-63
2022/07/29 04:53:48;;;;;;;3.47;1.40;;;;;;;14.35;66.57;101083.97;6049446;28;20029;-66
2022/07/29 04:56:43;;;;;;;3.83;1.53;;;;;;;14.42;66.61;101099.16;6049886;28;20033;-64
2022/07/29 04:59:38;;;;;;;3.00;1.83;;;;;;;14.43;66.20;101082.16;6048859;28;20224;-66
2022/07/29 05:02:34;;;;;;;2.73;1.50;;;;;;;14.53;66.47;101098.03;6047175;28;20269;-65
2022/07/29 05:05:29;;;;;;;3.03;1.40;;;;;;;14.64;66.26;101085.25;6042421;28;20034;-66
2022/07/29 05:08:24;;;;;;;3.30;1.70;;;;;;;14.76;66.20;101085.75;6048801;28;20021;-64
2022/07/29 05:11:20;;;;;;;4.03;1.47;;;;;;;14.75;65.54;101086.75;6047229;28;20036;-65
2022/07/29 05:14:15;;;;;;;9.05;2.03;;;;;;;14.91;65.28;101084.13;6048723;28;20029;-66
2022/07/29 05:17:10;;;;;;;4.90;1.50;;;;;;;14.79;65.73;101072.91;6048581;28;20421;-65
2022/07/29 05:20:07;;;;;;;4.00;1.40;;;;;;;14.96;65.26;101078.28;6048690;28;20036;-63
2022/07/29 05:23:02;;;;;;;9.38;2.17;;;;;;;15.02;64.97;101091.81;6049385;28;20752;-65
2022/07/29 05:25:58;;;;;;;4.25;1.88;;;;;;;15.05;64.77;101083.47;6049479;28;20080;-63
2022/07/29 05:28:54;;;;;;;4.67;1.93;;;;;;;15.14;64.45;101082.44;6049250;28;20037;-65
2022/07/29 05:31:50;;;;;;;6.70;2.85;;;;;;;15.28;64.10;101083.63;6048236;28;20026;-63
2022/07/29 05:34:46;;;;;;;4.68;2.00;;;;;;;15.31;64.45;101076.13;6049518;28;20053;-65
2022/07/29 05:37:41;;;;;;;5.47;1.57;;;;;;;15.47;64.01;101091.34;6049167;28;20048;-63
2022/07/29 05:40:36;;;;;;;7.45;1.75;;;;;;;15.43;63.91;101096.16;6048643;28;20037;-64
2022/07/29 05:43:32;;;;;;;7.40;2.00;;;;;;;15.77;63.36;101089.78;6049234;28;20041;-63
2022/07/29 05:46:27;;;;;;;3.40;1.80;;;;;;;15.74;63.61;101095.47;6049178;28;20065;-65
2022/07/29 05:49:23;;;;;;;6.13;1.65;;;;;;;15.61;63.58;101082.63;6048601;28;20022;-64
2022/07/29 05:52:18;;;;;;;6.63;1.97;;;;;;;15.55;63.59;101101.19;6048294;28;20029;-66
2022/07/29 05:55:13;;;;;;;4.93;1.73;;;;;;;15.66;63.75;101092.81;6049215;28;20049;-64
2022/07/29 05:58:09;;;;;;;6.90;1.97;;;;;;;15.49;63.60;101098.19;6049183;28;20025;-65
2022/07/29 06:01:04;;;;;;;11.83;2.23;;;;;;;15.50;64.55;101093.66;6048292;28;20030;-63
2022/07/29 06:03:59;;;;;;;5.87;1.80;;;;;;;15.62;63.19;101088.81;6049216;28;20052;-66
2022/07/29 06:06:55;;;;;;;4.30;1.90;;;;;;;15.72;63.72;101105.50;6049093;28;20354;-64
2022/07/29 06:09:50;;;;;;;4.93;2.00;;;;;;;15.53;64.16;101100.50;6048694;28;20299;-66
2022/07/29 06:12:45;;;;;;;4.53;2.03;;;;;;;15.64;64.66;101105.53;6048416;28;20401;-66
2022/07/29 06:15:41;;;;;;;3.10;1.80;;;;;;;15.66;64.56;101090.13;6052373;28;20038;-67
2022/07/29 06:18:36;;;;;;;6.22;2.03;;;;;;;15.95;63.50;101095.78;6052182;28;20053;-66
2022/07/29 06:21:31;;;;;;;5.30;2.30;;;;;;;16.18;62.39;101091.34;6052440;28;20025;-65
2022/07/29 06:24:27;;;;;;;7.00;2.30;;;;;;;16.33;62.13;101086.13;6052661;28;20292;-63
2022/07/29 06:27:22;;;;;;;4.93;1.93;;;;;;;16.18;63.43;101088.66;6052239;28;20040;-62
2022/07/29 06:30:17;;;;;;;5.83;1.90;;;;;;;16.36;62.74;101086.56;6052206;28;20324;-64
2022/07/29 06:33:17;;;;;;;5.63;2.33;;;;;;;16.28;62.07;101073.22;6052220;28;20077;-66
2022/07/29 06:36:12;;;;;;;4.57;2.22;;;;;;;16.42;62.02;101077.84;6052518;28;20280;-65
2022/07/29 06:39:08;;;;;;;5.50;2.20;;;;;;;16.48;61.65;101079.00;6052697;28;20038;-63
2022/07/29 06:42:04;;;;;;;5.63;2.08;;;;;;;16.48;62.09;101069.13;6051400;28;20343;-64
2022/07/29 06:44:59;;;;;;;6.70;2.40;;;;;;;16.66;61.28;101076.91;6052583;28;20045;-66
2022/07/29 06:47:55;;;;;;;6.47;1.92;;;;;;;17.00;60.24;101074.69;6052074;28;20040;-65
2022/07/29 06:50:50;;;;;;;4.83;2.10;;;;;;;17.03;60.46;101068.16;6051483;28;20030;-66
2022/07/29 06:53:45;;;;;;;7.07;2.43;;;;;;;17.21;59.34;101076.69;6052201;28;20034;-65
2022/07/29 06:56:41;;;;;;;5.20;2.20;;;;;;;17.41;58.46;101061.78;6051998;28;20386;-62
2022/07/29 06:59:36;;;;;;;9.43;2.50;;;;;;;17.12;59.63;101056.34;6052215;28;20026;-64
2022/07/29 07:02:32;;;;;;;3.60;2.00;;;;;;;17.29;60.02;101057.88;6049023;28;20433;-65
2022/07/29 07:05:27;;;;;;;4.90;2.40;;;;;;;17.65;59.10;101069.63;6051382;28;20128;-62
2022/07/29 07:08:23;;;;;;;4.17;1.70;;;;;;;17.95;57.75;101066.97;6051103;28;20041;-66
2022/07/29 07:11:18;;;;;;;5.40;2.38;;;;;;;18.01;57.35;101080.47;6049704;28;20113;-65
2022/07/29 07:14:14;;;;;;;8.47;2.60;;;;;;;18.22;57.06;101088.63;6050858;28;20030;-63
2022/07/29 07:17:09;;;;;;;8.57;2.07;;;;;;;18.10;57.86;101073.97;6050378;28;20092;-62
2022/07/29 07:20:05;;;;;;;5.90;2.00;;;;;;;18.39;56.96;101071.28;6050831;28;20060;-62
2022/07/29 07:23:00;;;;;;;6.82;2.10;;;;;;;18.55;56.14;101069.41;6051034;28;20034;-66
2022/07/29 07:25:56;;;;;;;4.50;2.43;;;;;;;18.86;55.47;101054.66;6049844;28;20080;-64
2022/07/29 07:28:51;;;;;;;6.97;2.38;;;;;;;19.51;53.72;101064.41;6051085;28;20675;-66
2022/07/29 07:31:46;;;;;;;10.53;2.43;;;;;;;19.19;54.55;101054.97;6048587;28;20080;-64
2022/07/29 07:34:43;;;;;;;5.93;2.07;;;;;;;20.41;52.16;101061.66;6050864;28;20017;-66
2022/07/29 07:37:40;;;;;;;6.60;2.58;;;;;;;20.00;51.17;101059.75;6050480;28;20277;-63
2022/07/29 07:40:35;;;;;;;4.93;2.10;;;;;;;20.14;50.90;101050.69;6049745;28;20032;-64
2022/07/29 07:43:30;;;;;;;4.17;1.83;;;;;;;19.83;51.24;101047.66;6050612;28;20468;-66
2022/07/29 07:46:26;;;;;;;8.93;2.30;;;;;;;20.10;51.34;101052.16;6050454;28;20326;-64
2022/07/29 07:49:21;;;;;;;5.90;1.97;;;;;;;20.34;51.10;101045.44;6050289;28;20029;-64
2022/07/29 07:52:17;;;;;;;5.53;1.83;;;;;;;20.29;51.02;101041.69;6049170;28;20037;-65
2022/07/29 07:55:13;;;;;;;8.05;2.33;;;;;;;20.43;50.44;101043.41;6050251;28;20116;-64
2022/07/29 07:58:08;;;;;;;8.20;2.30;;;;;;;20.46;49.63;101046.53;6049930;28;20040;-65
2022/07/29 08:01:04;;;;;;;4.40;2.35;;;;;;;20.34;49.89;101052.69;6049122;28;20026;-64
2022/07/29 08:03:59;;;;;;;5.07;2.00;;;;;;;20.25;50.79;101046.63;6050212;28;20022;-63
2022/07/29 08:06:55;;;;;;;7.70;2.10;;;;;;;20.23;50.58;101045.16;6049134;28;20025;-66
2022/07/29 08:09:51;;;;;;;5.75;2.17;;;;;;;20.27;50.40;101052.69;6049523;28;20068;-66
2022/07/29 08:12:46;;;;;;;8.17;2.30;;;;;;;20.32;50.54;101052.91;6048805;28;20354;-64
2022/07/29 08:15:42;;;;;;;6.83;2.43;;;;;;;20.63;49.82;101046.97;6049538;28;20281;-67
2022/07/29 08:18:39;;;;;;;6.28;2.15;;;;;;;21.01;48.96;101058.06;6049386;28;20374;-66
2022/07/29 08:21:35;;;;;;;5.47;2.13;;;;;;;21.20;48.10;101044.59;6048604;28;20103;-65
2022/07/29 08:27:44;;;;;;;6.38;2.30;;;;;;;21.67;47.27;101040.84;6049534;28;20421;-65
2022/07/29 08:30:39;;;;;;;9.07;2.30;;;;;;;21.80;46.34;101048.09;6048445;28;20034;-63
2022/07/29 08:33:34;;;;;;;5.60;2.23;;;;;;;22.04;46.13;101049.31;6048589;28;20030;-66
2022/07/29 08:36:30;;;;;;;7.53;2.70;;;;;;;21.46;48.02;101043.78;6049181;28;20108;-63
2022/07/29 08:39:26;;;;;;;4.10;1.92;;;;;;;22.18;46.52;101040.94;6049593;28;20025;-67
2022/07/29 08:42:21;;;;;;;6.32;2.08;;;;;;;22.03;45.95;101053.88;6048636;28;20044;-63
2022/07/29 08:45:17;;;;;;;5.03;2.33;;;;;;;21.75;46.68;101045.19;6049216;28;20381;-66
2022/07/29 08:48:13;;;;;;;7.80;2.40;;;;;;;22.36;45.28;101046.50;6048974;28;20369;-64
2022/07/29 08:51:12;;;;;;;9.55;2.35;;;;;;;23.05;43.93;101056.50;6048413;28;20477;-63
2022/07/29 08:54:09;;;;;;;5.63;2.33;;;;;;;23.22;43.59;101046.81;6049377;28;20037;-66
2022/07/29 08:57:04;;;;;;;5.45;1.98;;;;;;;23.83;42.04;101057.75;6048927;28;20032;-63
2022/07/29 09:00:01;;;;;;;5.63;2.33;;;;;;;24.12;40.80;101058.91;6048853;28;20034;-66
2022/07/29 09:02:57;;;;;;;6.30;2.55;;;;;;;24.23;41.08;101058.16;6048792;28;20033;-64
2022/07/29 09:05:53;;;;;;;5.78;2.55;;;;;;;24.89;39.27;101051.88;6064067;28;20516;-66
2022/07/29 09:08:48;;;;;;;5.82;2.28;;;;;;;23.95;40.55;101050.50;6064249;28;20022;-66
2022/07/29 09:11:44;;;;;;;9.10;2.20;;;;;;;23.49;42.23;101045.56;6048050;28;20041;-65
2022/07/29 09:14:39;;;;;;;5.70;2.42;;;;;;;24.11;41.01;101043.69;6048093;28;20065;-65
2022/07/29 09:17:49;;;;;;;6.57;2.50;;;;;;;24.49;40.94;101049.69;6049107;28;20116;-65
2022/07/29 09:24:11;;;;;;;6.78;2.50;;;;;;;24.84;39.68;101037.09;6049238;28;20037;-65
2022/07/29 09:27:11;;;;;;;6.50;3.00;;;;;;;24.64;39.68;101044.69;6048181;28;20026;-65
2022/07/29 09:30:12;;;;;;;9.25;2.28;;;;;;;24.97;38.45;101046.13;6047728;28;20041;-65
2022/07/29 09:33:07;;;;;;;7.65;2.40;;;;;;;24.71;39.80;101036.44;6048393;28;20088;-64
2022/07/29 09:36:07;;;;;;;5.57;2.27;;;;;;;25.23;38.68;101034.84;6048762;28;20022;-66
2022/07/29 09:39:02;;;;;;;8.30;2.13;;;;;;;25.23;38.41;101026.69;6048919;28;20080;-65
2022/07/29 09:42:00;;;;;;;5.95;2.20;;;;;;;24.75;39.98;101026.78;6047990;28;20073;-65
2022/07/29 09:44:55;;;;;;;7.03;2.33;;;;;;;24.78;39.44;101035.31;6048305;28;20030;-64
2022/07/29 09:47:51;;;;;;;6.97;2.93;;;;;;;24.63;39.61;101029.47;6048641;28;20480;-64
2022/07/29 09:50:49;;;;;;;7.20;2.40;;;;;;;25.00;39.96;101034.81;6052298;28;20265;-64
2022/07/29 09:53:44;;;;;;;5.57;2.33;;;;;;;24.64;39.89;101028.41;6052631;28;20271;-66
2022/07/29 09:56:41;;;;;;;5.17;2.30;;;;;;;24.34;40.99;101030.28;6052945;28;20620;-64
2022/07/29 09:59:36;;;;;;;5.90;2.53;;;;;;;24.84;39.90;101022.69;6052629;28;20026;-66
2022/07/29 10:02:33;;;;;;;5.23;2.67;;;;;;;25.06;39.11;101015.69;6052132;28;20366;-64
2022/07/29 10:05:29;;;;;;;8.38;2.63;;;;;;;24.38;40.75;101020.63;6052845;28;20033;-65
2022/07/29 10:08:27;;;;;;;5.90;2.27;;;;;;;24.82;39.55;101006.66;6052248;28;20072;-63
2022/07/29 10:11:22;;;;;;;4.47;2.15;;;;;;;26.00;38.29;101018.19;6050959;28;20381;-64
2022/07/29 10:14:18;;;;;;;6.50;2.30;;;;;;;26.34;37.56;101007.47;6051755;28;20040;-64
2022/07/29 10:17:13;;;;;;;5.53;2.40;;;;;;;26.47;36.64;101012.63;6050523;28;20040;-66
2022/07/29 10:20:08;;;;;;;6.37;2.20;;;;;;;26.47;37.29;100997.13;6051027;28;20679;-66
2022/07/29 10:23:04;;;;;;;6.00;2.70;;;;;;;26.20;36.89;100996.03;6050703;28;20038;-66
2022/07/29 10:26:00;;;;;;;5.85;2.22;;;;;;;26.26;36.49;101005.97;6052191;28;20053;-64
2022/07/29 10:28:55;;;;;;;6.37;2.30;;;;;;;26.56;36.21;101011.16;6051949;28;20228;-65
2022/07/29 10:32:27;;;;;;;5.90;2.23;;;;;;;25.90;37.07;100995.41;6066437;28;20300;-63
2022/07/29 10:35:33;;;;;;;6.22;2.35;;;;;;;25.53;37.56;100988.59;6050962;28;20374;-65
2022/07/29 10:38:49;;;;;;;7.15;2.28;;;;;;;25.57;37.47;100985.19;6066532;28;20042;-65
2022/07/29 10:41:56;;;;;;;6.82;2.20;;;;;;;25.99;36.83;100997.50;6050051;28;20022;-66
2022/07/29 10:44:52;;;;;;;5.10;2.30;;;;;;;26.27;36.13;100982.31;6050684;28;20033;-66
2022/07/29 10:47:47;;;;;;;5.03;1.98;;;;;;;26.21;35.40;100980.56;6051716;28;20025;-66
2022/07/29 10:51:00;;;;;;;5.77;2.03;;;;;;;25.95;36.10;100977.28;6051028;28;20500;-64
2022/07/29 10:53:55;;;;;;;6.45;1.90;;;;;;;26.01;36.80;100981.75;6051469;28;20037;-66
2022/07/29 10:56:51;;;;;;;8.77;2.10;;;;;;;26.16;37.24;100983.19;6051990;28;20041;-65
2022/07/29 11:00:11;;;;;;;4.85;1.83;;;;;;;25.89;37.52;100994.56;6049788;28;20026;-65
2022/07/29 11:03:06;;;;;;;7.32;2.47;;;;;;;25.99;36.83;100983.06;6052159;28;20041;-64
2022/07/29 11:06:01;;;;;;;5.07;1.88;;;;;;;26.25;36.04;100976.28;6051015;28;20049;-66
2022/07/29 11:09:20;;;;;;;5.03;2.28;;;;;;;26.08;35.85;100980.81;6051735;28;20358;-66
2022/07/29 11:12:36;;;;;;;5.63;2.15;;;;;;;26.18;36.88;100986.47;6050767;28;20061;-65
2022/07/29 11:15:54;;;;;;;6.80;2.00;;;;;;;25.71;37.43;100991.19;6051730;28;20116;-64
2022/07/29 11:19:11;;;;;;;7.47;2.45;;;;;;;25.82;36.97;100983.00;6051420;28;20484;-65
2022/07/29 11:22:08;;;;;;;6.60;2.03;;;;;;;25.83;36.79;100976.50;6050785;28;20041;-65
2022/07/29 11:25:17;;;;;;;5.38;2.03;;;;;;;25.67;37.75;100977.25;6050875;28;20037;-65
2022/07/29 11:28:16;;;;;;;5.85;2.03;;;;;;;25.52;37.00;100986.94;6051780;28;20037;-65
2022/07/29 11:31:11;;;;;;;4.65;2.05;;;;;;;25.36;37.97;100985.72;6064349;28;20457;-65
2022/07/29 11:34:21;;;;;;;4.63;2.33;;;;;;;25.58;38.16;100981.38;6066475;28;20032;-64
2022/07/29 11:37:18;;;;;;;5.82;2.33;;;;;;;25.65;37.55;100982.09;6051285;28;20068;-64
2022/07/29 11:40:15;;;;;;;8.10;2.50;;;;;;;25.45;37.91;100965.28;6050323;28;20065;-64
2022/07/29 11:43:50;;;;;;;5.80;2.15;;;;;;;25.55;38.41;100981.03;6051245;28;20113;-65
2022/07/29 11:46:48;;;;;;;6.55;2.30;;;;;;;25.46;38.11;100972.41;6051316;28;20060;-65
2022/07/29 11:49:44;;;;;;;5.57;2.50;;;;;;;25.66;37.65;100962.00;6049887;28;20304;-64
2022/07/29 11:52:47;;;;;;;9.88;2.60;;;;;;;25.53;38.65;100970.41;6049858;28;20088;-65
2022/07/29 11:55:43;;;;;;;4.03;2.08;;;;;;;25.70;38.08;100962.34;6050784;28;20105;-66
2022/07/29 11:58:38;;;;;;;7.38;1.98;;;;;;;25.68;38.23;100962.59;6050712;28;20139;-63
2022/07/29 12:01:34;;;;;;;9.80;2.65;;;;;;;25.82;38.29;100961.25;6050120;28;20485;-64
2022/07/29 12:04:29;;;;;;;6.65;2.28;;;;;;;26.22;37.14;100957.75;6050498;28;20089;-64
2022/07/29 12:07:29;;;;;;;5.90;2.38;;;;;;;26.20;37.52;100959.88;6050612;28;20033;-64
2022/07/29 12:10:30;;;;;;;5.18;2.10;;;;;;;26.38;37.42;100951.50;6043219;28;20045;-66
2022/07/29 12:13:38;;;;;;;4.60;2.33;;;;;;;26.72;36.87;100950.50;6050397;28;20037;-65
2022/07/29 12:16:35;;;;;;;5.78;2.35;;;;;;;26.65;35.49;100938.13;6050313;28;20068;-65
2022/07/29 12:19:41;;;;;;;4.18;2.15;;;;;;;26.45;36.75;100949.47;6050415;28;20033;-64
2022/07/29 12:22:40;;;;;;;4.60;2.17;;;;;;;26.47;36.33;100942.69;6049068;28;20121;-65
2022/07/29 12:25:36;;;;;;;6.45;2.40;;;;;;;26.65;37.08;100936.22;6049443;28;20698;-65
2022/07/29 12:28:37;;;;;;;6.45;2.40;;;;;;;26.93;35.93;100936.16;6050148;28;20510;-65
2022/07/29 12:31:32;;;;;;;5.55;2.30;;;;;;;26.64;35.65;100937.28;6049002;28;20454;-65
2022/07/29 12:34:28;;;;;;;9.47;2.87;;;;;;;26.55;36.01;100934.13;6049619;28;20077;-65
2022/07/29 12:37:23;;;;;;;6.55;2.38;;;;;;;26.59;36.09;100932.59;6049855;28;20029;-65
2022/07/29 12:40:20;;;;;;;5.40;2.50;;;;;;;26.47;35.29;100925.56;6048880;28;20943;-66
2022/07/29 12:43:20;;;;;;;5.95;2.67;;;;;;;26.41;35.50;100929.28;6049778;28;20276;-65
2022/07/29 12:46:16;;;;;;;4.43;2.13;;;;;;;26.54;35.63;100932.50;6049551;28;20377;-65
2022/07/29 12:49:21;;;;;;;6.50;2.60;;;;;;;26.74;34.81;100934.75;6049536;28;20033;-66
2022/07/29 12:52:29;;;;;;;7.63;2.58;;;;;;;26.91;34.62;100937.50;6048133;28;20311;-65
2022/07/29 12:55:48;;;;;;;5.28;2.67;;;;;;;27.12;33.52;100929.38;6049361;28;20034;-65
2022/07/29 12:58:44;;;;;;;4.25;2.22;;;;;;;26.90;33.41;100938.59;6040349;28;20036;-64
2022/07/29 13:01:39;;;;;;;5.88;2.60;;;;;;;26.77;33.70;100934.22;6049201;28;20068;-66
2022/07/29 13:04:36;;;;;;;4.30;2.07;;;;;;;26.85;33.60;100928.41;6048416;28;20037;-65
2022/07/29 13:07:34;;;;;;;8.13;2.80;;;;;;;27.14;32.64;100916.38;6049725;28;20759;-65
2022/07/29 13:10:35;;;;;;;8.40;2.58;;;;;;;27.12;31.81;100934.84;6049021;28;20112;-64
2022/07/29 13:13:31;;;;;;;5.68;2.08;;;;;;;27.66;30.60;100921.47;6049244;28;20757;-64
2022/07/29 13:16:26;;;;;;;5.97;2.00;;;;;;;27.32;31.53;100919.88;6064854;28;20432;-65
2022/07/29 13:19:52;;;;;;;5.78;2.40;;;;;;;27.37;31.65;100912.59;6048942;28;20363;-66
2022/07/29 13:22:48;;;;;;;6.20;2.20;;;;;;;27.66;30.29;100918.75;6049562;28;20104;-65
2022/07/29 13:25:43;;;;;;;7.10;2.78;;;;;;;27.50;30.10;100909.56;6053838;28;20030;-63
2022/07/29 13:28:38;;;;;;;7.30;2.33;;;;;;;27.16;30.44;100914.22;6054249;28;20025;-65
2022/07/29 13:31:34;;;;;;;6.80;2.20;;;;;;;27.56;30.48;100910.41;6053192;28;20117;-65
2022/07/29 13:34:29;;;;;;;7.80;2.70;;;;;;;27.87;28.93;100914.34;6055403;28;20540;-64
2022/07/29 13:37:26;;;;;;;8.02;2.28;;;;;;;27.68;29.23;100902.94;6059494;28;20057;-64
2022/07/29 13:40:21;;;;;;;7.47;2.40;;;;;;;28.06;29.93;100912.97;6057113;28;20057;-66
2022/07/29 13:43:16;;;;;;;5.43;1.95;;;;;;;28.54;29.11;100903.88;6056581;28;20398;-64
2022/07/29 13:46:12;;;;;;;10.93;2.50;;;;;;;28.62;28.05;100903.44;6053771;28;20040;-66
2022/07/29 13:49:07;;;;;;;6.80;2.60;;;;;;;28.76;27.05;100902.75;6053480;28;20029;-65
2022/07/29 13:52:03;;;;;;;5.63;2.20;;;;;;;28.70;26.68;100900.25;6053100;28;20458;-64
2022/07/29 13:54:59;;;;;;;6.22;2.20;;;;;;;28.17;27.11;100895.63;6053660;28;20037;-66
2022/07/29 13:57:54;;;;;;;7.03;2.47;;;;;;;27.57;28.00;100895.72;6053860;28;20088;-65